Gulfport Biloxi International Airport
KGPT : now visible

Airfield :











YOU CAN JOIN US ON...

 
LOGIN :

Register | Disclaimer

   EN    FR    IT 

 









Legend :    VFR   Marginal VFR   IFR   Intensive IFR   Very Intensive IFR
Visi :
Ceiling :
>= 8 km
>= 3000ft
5 to 8 km
1000 to 3000 ft
1500m to 5 km
500 to 1000 ft
800 to 1500m
200 to 500 ft
< 800m
< 200 ft
Symbols :   Thunderstorms  Fog  Heavy snow  Heavy precipitations  Wind > 20 kt







- Airport Elevation : 28 ft
- IATA code : GPT


KGPT - Gulfport Biloxi International

CURRENT METAR :
  • 201353Z 14014G21KT 1/4SM FG VV002 19/19 A2992 RMK AO2 SLP132 T01890189 RVRNO

EXPIRED METARs :
  • 201309Z 13014KT 1/4SM FG VV002 19/19 A2992 RMK AO2 T01890189 RVRNO
  • 201253Z 13013KT 1/2SM FG VV002 19/19 A2991 RMK AO2 SLP129 T01940189 RVRNO
  • 201153Z 14015KT 1/2SM FG VV002 19/19 A2991 RMK AO2 SLP126 70028 T01940194 10206 20194 55009 RVRNO
  • 201106Z AUTO 14015KT 1/2SM FG VV002 19/19 A2990 RMK AO2 T01940194 RVRNO

TAF KGPT
Valid from the 20 at 13:00 until the 21 at 12:00 UTC


201319Z 2013/2112 15013G21KT 3/4SM BR VCSH OVC002
TEMPO 2013/2015 1/4SM FG VV002
FM201500 16014KT 2SM -SHRA BR VCTS OVC005CB
FM202100 23010KT 4SM SHRA BR VCTS OVC010CB
FM210700 07005KT 2SM BR OVC002
FM211100 03005KT 1/2SM FG OVC002
KZHU FIR / North America



MET'MAP, your aeronautical weather chart ! - Copyright ORBIFLY December 2007 - Disclaimer

ORBIFLY MET'MAP TEAM :

Programming & Development : Alexandra Zaïnal
Concept & Development : Baudouin d'Aumeries
Co-Development & Prog : Marc-Olivier Méhu
Technical & hardware support : Manuel Goepfert

Contact : metmap@orbifly.com




SOURCES & CREDITS :

   NOAA       Earth
Advisory